Meteo Giornale » Osservazioni meteo Stati Uniti (USA) » Fort Myers Southwest Florida
ore: 19:53 - Osservazioni Meteo Fort Myers Southwest Florida
Lat. 26° 31' N Lon. 81° 45' W Alt. 9 metri s.l.m.
27 °C
Sereno
Temp. 24 Ore
24 °C
34 °C
Sud/Sud-Est
13 Km/h
Dew point 25 °C
Umidità 88 %
Visibilità 10 Km
Il sole sorge alle ore 07:06
Il sole tramonta alle ore 19:48
| Data e Ora | Cielo e Fenomeni | T °C | DP °C | Um. % | Pres. hPa | Vis. km | Vento km/h | |
|---|---|---|---|---|---|---|---|---|
| Oggi h: 19:53 | Sereno | 27 | 25 | 88 | 1016 | 10 | S/SE 13 | |
| Oggi h: 18:53 | Temporale nelle vicinanze | 27 | 25 | 88 | 1015 | 10 | S/SE 20.3 | |
| Oggi h: 18:43 | Temporale | 28 | 26 | 88 | 1016 | 10 | S/SE 20.3 | |
| Oggi h: 18:31 | Temporale nelle vicinanze | 28 | 25 | 83 | 1015 | 10 | E 22.2 | |
| Oggi h: 18:24 | Molto Nuvoloso | 28 | 25 | 83 | 1015 | 10 | E 22.2 | |
| Oggi h: 18:12 | Temporale | 30 | 23 | 66 | 1015 | 10 | E 22.2 | |
| Oggi h: 17:53 | Temporale nelle vicinanze | 31 | 24 | 66 | 1015 | 10 | NE 18.5 | |
| Oggi h: 17:49 | Temporale nelle vicinanze | 31 | 24 | 66 | 1015 | 10 | NE 18.5 | |
| Oggi h: 17:22 | Temporale | 31 | 24 | 66 | 1015 | 10 | NE 18.5 | |
| Oggi h: 16:53 | Nuvoloso | 32 | 24 | 62 | 1015 | 10 | N 7.4 | |
| Oggi h: 15:53 | Sereno | 34 | 22 | 49 | 1015 | 10 | N 7.4 | |
| Oggi h: 14:53 | Nuvoloso | 34 | 23 | 52 | 1015 | 10 | N 7.4 | |
| Oggi h: 13:57 | Nuvoloso | 32 | 24 | 62 | 1016 | 10 | N 7.4 | |
| Oggi h: 13:53 | Poco Nuvoloso | 33 | 24 | 59 | 1016 | 10 | N 0 | |
| Oggi h: 12:53 | Poco Nuvoloso | 32 | 24 | 62 | 1017 | 10 | N 5.5 | |
| Oggi h: 12:07 | Nuvoloso | 31 | 25 | 70 | 1017 | 10 | N 5.5 | |
| Oggi h: 11:53 | Molto Nuvoloso | 31 | 25 | 70 | 1018 | 10 | E/NE 9.3 | |
| Oggi h: 11:35 | Molto Nuvoloso | 31 | 25 | 70 | 1018 | 10 | N 5.5 | |
| Oggi h: 10:53 | Poco Nuvoloso | 30 | 26 | 79 | 1017 | 10 | E/SE 9.3 | |
| Oggi h: 09:53 | Sereno | 28 | 26 | 88 | 1017 | 10 | E/NE 11.1 | |
| Oggi h: 08:53 | Sereno | 26 | 25 | 94 | 1017 | 10 | E/NE 7.4 | |
| Oggi h: 07:53 | Sereno | 25 | 24 | 94 | 1016 | 10 | N 0 | |
| Oggi h: 06:53 | Sereno | 24 | 23 | 94 | 1016 | 10 | N 0 | |
| Oggi h: 05:53 | Sereno | 24 | 23 | 94 | 1015 | 10 | NE 7.4 | |
| Oggi h: 04:53 | Sereno | 24 | 23 | 94 | 1015 | 10 | N 5.5 | |
| Oggi h: 03:53 | Sereno | 24 | 23 | 94 | 1015 | 10 | E/NE 7.4 | |
| Oggi h: 02:53 | Sereno | 24 | 24 | 100 | 1016 | 10 | N 5.5 | |
| Oggi h: 01:53 | Sereno | 24 | 24 | 100 | 1016 | 10 | NE 7.4 | |
| Oggi h: 00:53 | Sereno | 25 | 24 | 94 | 1017 | 10 | N 5.5 | |
| Ieri h: 23:53 | Sereno | 25 | 24 | 94 | 1017 | 10 | E/NE 7.4 | |
| Ieri h: 22:53 | Sereno | 26 | 24 | 88 | 1016 | 10 | E 7.4 | |
| Ieri h: 21:53 | Sereno | 26 | 24 | 88 | 1017 | 10 | E/NE 9.3 | |
| Ieri h: 20:53 | Sereno | 26 | 24 | 88 | 1017 | 10 | N 0 | |



